Leeville, Louisiana
Current Conditions -  °F | °C
As of 4:15 PM on Saturday 25 Oct 2014 (Local Time) from KXPY Reporting Station
Clear Clear  
Wind Chill: 75°   Ceiling: Unl
Heat Index: 75°   Visibility: 10mi
Dew Point: 57°   Wind: 6mph
Humidity: 53%   Direction: 50°NE
Pressure: 30.11"   Gusts: NA
Location:  29.3682°N, 90.1684°W
Report Text: KXPY 252115Z AUTO 05005KT 10SM CLR 24/14 A3011 RMK A01
Loading
Personal Weather Stations






























Interactive Weather Map
Tropical Storm Tracking
New forecast layout! Learn more

10-Day Weather Forecast

Advertisements
Track Severe Weather on mobile